Sirius — WDA2145 — position and weather

sailwx.info

Track history (hours):
 
Tides and Currents Weather Stations Pressure Air Temp Water Temp Dewpoint Dewpoint Depression Visibility Wind Speed Wind Dir Waves Ship Positions

Sirius

Owner: TISBURY TOWING AND TRANSPORTATION INC, TISBURY, MA. More information available from US FCC via Universal Licensing System and Coast Guard Vessel Documentation Center.

Last reported at 2017-Jul-21 09:52 UTC. Time now 2017-Sep-25 06:33 UTC.
Position N 41°27' W 070°36'.
Warning: this ship's position is months out of date.

Length 19 m; draft 1.9 m.

Type: Towing. MMSI: 367181040.

Date/timePositionNaut miles runAvg speedWind from/ knotsBaromVisibWave heightAir tempDewpointWater temp
2017-Jul-21 09:52N 41°27' W 070°36'  
2017-Jul-14 15:03N 41°32' W 070°45'1 6.2
2017-Jul-14 14:51N 41°32' W 070°44'7 4.4
2017-Jul-14 13:09N 41°27' W 070°36'0 0.6
2017-Jul-14 13:00N 41°27' W 070°36'0 0.0
2017-Jul-14 12:31N 41°27' W 070°36'0 0.0
2017-Jul-14 12:01N 41°27' W 070°36'0 0.0
2017-Jul-14 11:31N 41°27' W 070°36'0 0.0
2017-Jul-14 11:00N 41°27' W 070°36'0 0.0
2017-Jul-14 10:30N 41°27' W 070°36'0 0.0
2017-Jul-14 10:01N 41°27' W 070°36'0 0.0
2017-Jul-14 09:31N 41°27' W 070°36'0 0.0
2017-Jul-14 09:01N 41°27' W 070°36'0 0.0
2017-Jul-14 08:30N 41°27' W 070°36'0 0.0
2017-Jul-14 08:01N 41°27' W 070°36'0 0.0
2017-Jul-14 07:30N 41°27' W 070°36'0 0.0
2017-Jul-14 07:00N 41°27' W 070°36'0 0.0
2017-Jul-14 06:30N 41°27' W 070°36'0 0.0
2017-Jul-14 06:01N 41°27' W 070°36'0 0.0
2017-Jul-14 05:30N 41°27' W 070°36'0 0.0
2017-Jul-14 05:00N 41°27' W 070°36'0 0.0
2017-Jul-14 04:30N 41°27' W 070°36'0 0.0
2017-Jul-14 03:59N 41°27' W 070°36'0 0.0
2017-Jul-14 03:27N 41°27' W 070°36'0 0.0
2017-Jul-14 03:00N 41°27' W 070°36'0 0.0
2017-Jul-14 02:28N 41°27' W 070°36'0 0.0
2017-Jul-14 01:58N 41°27' W 070°36'0 0.0
2017-Jul-14 01:27N 41°27' W 070°36'0 0.0
2017-Jul-14 01:00N 41°27' W 070°36'0 0.0
2017-Jul-14 00:27N 41°27' W 070°36'0 0.0
2017-Jul-14 00:00N 41°27' W 070°36'0 0.1
2017-Jul-13 22:46N 41°27' W 070°36'1 5.2
2017-Jul-13 22:30N 41°29' W 070°35'2 3.7
2017-Jul-13 22:01N 41°30' W 070°38'2 4.9
2017-Jul-13 21:31N 41°31' W 070°40'2 3.1
2017-Jul-13 20:57N 41°32' W 070°43'3 4.5
2017-Jul-13 20:19N 41°30' W 070°46'2 5.7
2017-Jul-13 20:00N 41°29' W 070°48'4 5.7
2017-Jul-13 19:21N 41°27' W 070°52'3 5.7
2017-Jul-13 18:52N 41°26' W 070°55'0 1.1
2017-Jul-13 18:30N 41°25' W 070°55'0 0.0
2017-Jul-13 18:01N 41°25' W 070°55'0 0.7
2017-Jul-13 17:31N 41°26' W 070°55'3 6.5
2017-Jul-13 17:00N 41°29' W 070°54'10 1.8
2017-Jul-13 11:26N 41°39' W 070°55'12 1.6
2017-Jul-13 04:02N 41°32' W 070°42'1 6.3
2017-Jul-13 03:55N 41°32' W 070°43'  
Track history (hours):
 
Tides and Currents Weather Stations Pressure Air Temp Water Temp Dewpoint Dewpoint Depression Visibility Wind Speed Wind Dir Waves Ship Positions

Sirius

Owner: TISBURY TOWING AND TRANSPORTATION INC, TISBURY, MA. More information available from US FCC via Universal Licensing System and Coast Guard Vessel Documentation Center.

Last reported at 2017-Jul-21 09:52 UTC. Time now 2017-Sep-25 06:33 UTC.
Position N 41°27' W 070°36'.
Warning: this ship's position is months out of date.

Length 19 m; draft 1.9 m.

Type: Towing. MMSI: 367181040.

Date/timePositionNaut miles runAvg speedWind from/ knotsBaromVisibWave heightAir tempDewpointWater temp
2017-Jul-21 09:52N 41°27' W 070°36'  
2017-Jul-14 15:03N 41°32' W 070°45'1 6.2
2017-Jul-14 14:51N 41°32' W 070°44'7 4.4
2017-Jul-14 13:09N 41°27' W 070°36'0 0.6
2017-Jul-14 13:00N 41°27' W 070°36'0 0.0
2017-Jul-14 12:31N 41°27' W 070°36'0 0.0
2017-Jul-14 12:01N 41°27' W 070°36'0 0.0
2017-Jul-14 11:31N 41°27' W 070°36'0 0.0
2017-Jul-14 11:00N 41°27' W 070°36'0 0.0
2017-Jul-14 10:30N 41°27' W 070°36'0 0.0
2017-Jul-14 10:01N 41°27' W 070°36'0 0.0
2017-Jul-14 09:31N 41°27' W 070°36'0 0.0
2017-Jul-14 09:01N 41°27' W 070°36'0 0.0
2017-Jul-14 08:30N 41°27' W 070°36'0 0.0
2017-Jul-14 08:01N 41°27' W 070°36'0 0.0
2017-Jul-14 07:30N 41°27' W 070°36'0 0.0
2017-Jul-14 07:00N 41°27' W 070°36'0 0.0
2017-Jul-14 06:30N 41°27' W 070°36'0 0.0
2017-Jul-14 06:01N 41°27' W 070°36'0 0.0
2017-Jul-14 05:30N 41°27' W 070°36'0 0.0
2017-Jul-14 05:00N 41°27' W 070°36'0 0.0
2017-Jul-14 04:30N 41°27' W 070°36'0 0.0
2017-Jul-14 03:59N 41°27' W 070°36'0 0.0
2017-Jul-14 03:27N 41°27' W 070°36'0 0.0
2017-Jul-14 03:00N 41°27' W 070°36'0 0.0
2017-Jul-14 02:28N 41°27' W 070°36'0 0.0
2017-Jul-14 01:58N 41°27' W 070°36'0 0.0
2017-Jul-14 01:27N 41°27' W 070°36'0 0.0
2017-Jul-14 01:00N 41°27' W 070°36'0 0.0
2017-Jul-14 00:27N 41°27' W 070°36'0 0.0
2017-Jul-14 00:00N 41°27' W 070°36'0 0.1
2017-Jul-13 22:46N 41°27' W 070°36'1 5.2
2017-Jul-13 22:30N 41°29' W 070°35'2 3.7
2017-Jul-13 22:01N 41°30' W 070°38'2 4.9
2017-Jul-13 21:31N 41°31' W 070°40'2 3.1
2017-Jul-13 20:57N 41°32' W 070°43'3 4.5
2017-Jul-13 20:19N 41°30' W 070°46'2 5.7
2017-Jul-13 20:00N 41°29' W 070°48'4 5.7
2017-Jul-13 19:21N 41°27' W 070°52'3 5.7
2017-Jul-13 18:52N 41°26' W 070°55'0 1.1
2017-Jul-13 18:30N 41°25' W 070°55'0 0.0
2017-Jul-13 18:01N 41°25' W 070°55'0 0.7
2017-Jul-13 17:31N 41°26' W 070°55'3 6.5
2017-Jul-13 17:00N 41°29' W 070°54'10 1.8
2017-Jul-13 11:26N 41°39' W 070°55'12 1.6
2017-Jul-13 04:02N 41°32' W 070°42'1 6.3
2017-Jul-13 03:55N 41°32' W 070°43'  

Dump ship's entire track history